Terminal Aerodrome Forecast
Issued by NWS

Home | Current Version | Previous Version | Text Only | Print | Product List | Glossary On
Versions: 1 2 3 4 5 6 7 8 9 10 11 12 13 14
975
FTUS42 KJAX 112323
TAFCRG
TAF
KCRG 112323Z 1200/1224 21007KT P6SM SKC
     FM120900 22006KT 6SM BR SCT025 SCT250
     FM121500 24014G22KT P6SM SCT035 BKN250=

USA.gov is the U.S. government's official web portal to all federal, state and local government web resources and services.